createdAt,value
2022-10-31T00:01:01.094Z,2.80
2022-10-31T00:06:02.855Z,3.75
2022-10-31T00:11:04.626Z,3.45
2022-10-31T00:16:14.134Z,3.53
2022-10-31T00:21:17.031Z,4.03
2022-10-31T00:26:18.953Z,3.53
2022-10-31T00:31:20.620Z,3.33
2022-10-31T00:36:22.363Z,3.55
2022-10-31T00:41:24.112Z,3.70
2022-10-31T00:46:25.882Z,4.13
2022-10-31T00:51:28.924Z,3.92
2022-10-31T00:56:30.686Z,3.90
2022-10-31T01:01:33.780Z,3.92
2022-10-31T01:06:36.426Z,3.97
2022-10-31T01:11:38.082Z,3.60
2022-10-31T01:16:42.625Z,3.92
2022-10-31T01:21:44.298Z,3.95
2022-10-31T01:26:45.901Z,3.90
2022-10-31T01:31:47.537Z,3.45
2022-10-31T01:36:52.433Z,3.40
2022-10-31T01:41:57.771Z,3.50
2022-10-31T01:47:06.244Z,3.35
2022-10-31T01:52:19.936Z,3.30
2022-10-31T01:57:22.940Z,3.30
2022-10-31T02:02:29.419Z,3.08
2022-10-31T02:07:38.538Z,3.40
2022-10-31T02:12:41.229Z,2.53
2022-10-31T02:17:42.902Z,3.13
2022-10-31T02:23:19.328Z,2.85
2022-10-31T02:28:43.152Z,2.70
2022-10-31T02:33:55.984Z,2.90
2022-10-31T02:39:11.685Z,3.72
2022-10-31T02:44:29.607Z,3.40
2022-10-31T02:49:47.583Z,3.47
2022-10-31T02:54:50.901Z,3.45
2022-10-31T02:59:58.082Z,3.67
2022-10-31T03:05:27.744Z,3.53
2022-10-31T03:10:54.468Z,3.80
2022-10-31T03:16:06.311Z,4.40
2022-10-31T03:21:19.489Z,4.65
2022-10-31T03:26:24.927Z,3.95
2022-10-31T03:31:36.782Z,3.67
2022-10-31T03:36:42.590Z,4.00
2022-10-31T03:41:50.033Z,4.25
2022-10-31T03:46:52.022Z,4.25
2022-10-31T03:52:24.656Z,4.40
2022-10-31T03:57:52.803Z,5.03
2022-10-31T04:03:07.120Z,4.82
2022-10-31T04:08:16.466Z,4.50
2022-10-31T04:13:27.059Z,4.65
2022-10-31T04:18:37.100Z,5.00
2022-10-31T04:23:39.080Z,4.32
2022-10-31T04:28:51.453Z,4.20
2022-10-31T04:33:53.262Z,5.10
2022-10-31T04:38:54.971Z,5.28
2022-10-31T04:44:21.800Z,5.40
2022-10-31T04:49:27.145Z,4.97
2022-10-31T04:54:29.388Z,5.03
2022-10-31T05:00:03.035Z,5.40
2022-10-31T05:05:07.268Z,5.63
2022-10-31T05:10:12.321Z,6.30
2022-10-31T05:15:14.969Z,6.45
2022-10-31T05:20:48.763Z,7.22
2022-10-31T05:25:57.537Z,7.47
2022-10-31T05:30:59.403Z,7.82
2022-10-31T05:36:01.337Z,8.10
2022-10-31T05:41:08.389Z,8.00
2022-10-31T05:46:10.092Z,8.73
2022-10-31T05:51:32.080Z,9.75
2022-10-31T05:56:33.798Z,9.07
2022-10-31T06:01:40.263Z,9.20
2022-10-31T06:06:51.422Z,9.93
2022-10-31T06:11:53.335Z,10.68
2022-10-31T06:17:01.013Z,10.25
2022-10-31T06:22:40.943Z,10.50
2022-10-31T06:27:42.661Z,9.75
2022-10-31T06:32:50.437Z,11.38
2022-10-31T06:37:55.987Z,10.50
2022-10-31T06:43:12.325Z,11.25
2022-10-31T06:48:18.018Z,11.73
2022-10-31T06:53:46.567Z,12.02
2022-10-31T06:58:51.120Z,11.23
2022-10-31T07:04:01.715Z,12.40
2022-10-31T07:09:06.721Z,12.15
2022-10-31T07:14:08.519Z,12.25
2022-10-31T07:19:10.415Z,11.80
2022-10-31T07:24:12.703Z,12.52
2022-10-31T07:29:17.205Z,13.13
2022-10-31T07:34:19.012Z,12.20
2022-10-31T07:39:44.226Z,12.30
2022-10-31T07:44:46.160Z,13.80
2022-10-31T07:49:59.727Z,13.23
2022-10-31T07:55:20.073Z,14.07
2022-10-31T08:00:23.752Z,15.23
2022-10-31T08:05:25.976Z,15.18
2022-10-31T08:10:47.989Z,14.88
2022-10-31T08:15:54.796Z,14.88
2022-10-31T08:21:01.423Z,15.77
2022-10-31T08:26:03.141Z,15.85
2022-10-31T08:31:06.785Z,16.23
2022-10-31T08:36:14.181Z,19.65
2022-10-31T08:41:27.584Z,20.52
2022-10-31T08:46:29.374Z,18.77
2022-10-31T08:51:31.171Z,22.30
2022-10-31T08:56:32.999Z,19.58
2022-10-31T09:01:38.820Z,18.63
2022-10-31T09:06:50.291Z,18.52
2022-10-31T09:11:58.036Z,18.00
2022-10-31T09:17:38.038Z,16.07
2022-10-31T09:23:25.280Z,16.95
2022-10-31T09:28:27.231Z,15.43
2022-10-31T09:33:33.044Z,14.70
2022-10-31T09:38:54.563Z,13.50
2022-10-31T09:44:12.832Z,13.02
2022-10-31T09:49:36.672Z,13.20
2022-10-31T09:54:47.380Z,11.98
2022-10-31T09:59:50.588Z,12.23
2022-10-31T10:05:02.717Z,10.60
2022-10-31T10:10:41.232Z,10.38
2022-10-31T10:16:34.405Z,10.73
2022-10-31T10:21:48.270Z,10.75
2022-10-31T10:27:02.231Z,9.10
2022-10-31T10:32:13.936Z,9.77
2022-10-31T10:37:29.335Z,10.90
2022-10-31T10:42:49.629Z,10.43
2022-10-31T10:48:06.457Z,11.27
2022-10-31T10:53:32.829Z,12.43
2022-10-31T10:58:35.010Z,12.98
2022-10-31T11:03:39.659Z,14.18
2022-10-31T11:08:43.229Z,13.18
2022-10-31T11:13:55.746Z,14.07
2022-10-31T11:24:55.458Z,11.85
2022-10-31T11:30:06.706Z,12.48
2022-10-31T11:35:16.620Z,13.20
2022-10-31T11:40:22.302Z,13.02
2022-10-31T11:45:26.391Z,11.75
2022-10-31T11:50:39.920Z,11.75
2022-10-31T11:55:41.840Z,12.18
2022-10-31T14:32:36.555Z,18.95
2022-10-31T14:38:03.336Z,19.80
2022-10-31T14:43:20.230Z,18.50
2022-10-31T14:48:37.159Z,20.08
2022-10-31T14:53:50.251Z,20.88
2022-10-31T14:58:53.856Z,20.50
2022-10-31T15:09:33.478Z,19.73
2022-10-31T15:14:36.065Z,18.98
2022-10-31T15:19:38.918Z,19.33
2022-10-31T15:24:40.919Z,19.05
2022-10-31T15:29:56.623Z,19.35
2022-10-31T15:35:03.793Z,19.88
2022-10-31T15:40:22.776Z,18.85
2022-10-31T15:45:32.759Z,21.42
2022-10-31T15:50:46.217Z,19.77
2022-10-31T15:56:07.992Z,20.63
2022-10-31T16:01:47.894Z,19.77
2022-10-31T16:07:13.085Z,20.50
2022-10-31T16:12:19.948Z,18.85
2022-10-31T16:17:31.082Z,20.27
2022-10-31T16:22:39.348Z,22.50
2022-10-31T16:27:42.351Z,19.38
2022-10-31T16:32:56.316Z,18.15
2022-10-31T16:37:58.462Z,18.70
2022-10-31T16:43:02.258Z,19.17
2022-10-31T16:48:13.544Z,19.63
2022-10-31T16:53:18.378Z,17.42
2022-10-31T16:58:24.226Z,18.00
2022-10-31T17:03:26.423Z,18.90
2022-10-31T17:08:28.106Z,16.08
2022-10-31T17:13:33.930Z,18.13
2022-10-31T17:18:35.657Z,18.67
2022-10-31T17:23:38.654Z,52.17
2022-10-31T17:28:40.642Z,26.20
2022-10-31T17:33:43.356Z,22.38
2022-10-31T17:38:45.202Z,17.73
2022-10-31T17:43:46.934Z,19.30
2022-10-31T17:48:49.434Z,18.17
2022-10-31T17:53:51.240Z,20.00
2022-10-31T17:58:53.161Z,17.30
2022-10-31T18:03:55.547Z,20.48
2022-10-31T18:08:58.340Z,18.98
2022-10-31T18:14:00.313Z,17.92
2022-10-31T18:19:02.378Z,20.00
2022-10-31T18:24:04.636Z,18.45
2022-10-31T18:29:06.525Z,17.52
2022-10-31T18:34:08.312Z,19.38
2022-10-31T18:39:11.391Z,19.73
2022-10-31T18:44:13.122Z,19.42
2022-10-31T18:49:15.662Z,19.52
2022-10-31T18:54:18.134Z,19.55
2022-10-31T18:59:19.931Z,19.05
2022-10-31T19:04:21.848Z,20.02
2022-10-31T19:09:24.444Z,20.45
2022-10-31T19:14:26.242Z,19.02
2022-10-31T19:19:27.976Z,20.58
2022-10-31T19:24:29.793Z,30.77
2022-10-31T19:29:31.419Z,22.02
2022-10-31T19:34:33.266Z,35.10
2022-10-31T19:39:38.637Z,19.75
2022-10-31T19:44:43.032Z,18.95
2022-10-31T19:49:44.960Z,16.73
2022-10-31T19:54:46.676Z,17.40
2022-10-31T19:59:48.598Z,14.73
2022-10-31T20:04:50.284Z,15.48
2022-10-31T20:09:53.077Z,12.73
2022-10-31T20:14:54.807Z,13.20
2022-10-31T20:19:56.723Z,11.02
2022-10-31T20:24:58.506Z,11.90
2022-10-31T20:30:00.287Z,11.63
2022-10-31T20:35:02.063Z,12.75
2022-10-31T20:40:03.967Z,10.88
2022-10-31T20:45:06.008Z,10.93
2022-10-31T20:50:08.111Z,8.73
2022-10-31T20:55:09.794Z,10.85
2022-10-31T21:00:12.615Z,10.10
2022-10-31T21:05:16.351Z,8.68
2022-10-31T21:10:30.570Z,12.75
2022-10-31T21:15:32.672Z,8.13
2022-10-31T21:20:44.749Z,8.30
2022-10-31T21:25:47.778Z,8.02
2022-10-31T21:30:57.241Z,8.50
2022-10-31T21:35:58.985Z,7.70
2022-10-31T21:41:08.984Z,8.38
2022-10-31T21:46:16.968Z,8.35
2022-10-31T21:51:22.239Z,9.35
2022-10-31T21:56:24.834Z,7.85
2022-10-31T22:01:28.991Z,7.30
2022-10-31T22:06:31.156Z,8.15
2022-10-31T22:11:34.441Z,8.27
2022-10-31T22:16:36.756Z,8.18
2022-10-31T22:21:46.643Z,8.07
2022-10-31T22:26:48.406Z,7.57
2022-10-31T22:31:57.233Z,6.88
2022-10-31T22:37:02.203Z,7.65
2022-10-31T22:42:03.957Z,10.35
2022-10-31T22:47:05.609Z,8.38
2022-10-31T22:52:07.442Z,7.63
2022-10-31T22:57:09.220Z,7.13
2022-10-31T23:02:12.573Z,8.90
2022-10-31T23:07:15.744Z,9.43
2022-10-31T23:12:36.733Z,10.02
2022-10-31T23:17:39.169Z,8.70
2022-10-31T23:22:41.611Z,8.10
2022-10-31T23:27:43.271Z,8.68
2022-10-31T23:32:45.151Z,7.70
2022-10-31T23:37:46.813Z,8.23
2022-10-31T23:42:48.414Z,7.22
2022-10-31T23:47:50.043Z,8.38
2022-10-31T23:52:51.743Z,7.32
2022-10-31T23:57:53.497Z,7.07
